Time;durP1;ratioP1;P1;durP2;ratioP2;P2;SDS_P1;SDS_P2;PMS_P1;PMS_P2;Temp;Humidity;BMP_temperature;BMP_pressure;BME280_temperature;BME280_humidity;BME280_pressure;Samples;Min_cycle;Max_cycle;Signal;HPM_P1;HPM_P2
2023/10/06 00:02:58;;;;;;;1999.90;999.90;;;7.30;99.90;;;;;;4952113;28;20036;-75
2023/10/06 00:05:24;;;;;;;1999.90;999.90;;;7.20;99.90;;;;;;4951991;28;20036;-75
2023/10/06 00:07:53;;;;;;;1999.90;999.90;;;7.10;99.90;;;;;;4953016;28;20512;-75
2023/10/06 00:10:21;;;;;;;1999.90;999.90;;;7.10;99.90;;;;;;4950829;28;20031;-75
2023/10/06 00:12:59;;;;;;;1999.90;999.90;;;7.10;99.90;;;;;;4953213;28;20042;-75
2023/10/06 00:15:39;;;;;;;1999.90;999.90;;;7.10;99.90;;;;;;4953310;28;20031;-75
2023/10/06 00:18:09;;;;;;;1999.90;999.90;;;7.10;99.90;;;;;;4951658;28;20465;-75
2023/10/06 00:20:39;;;;;;;1999.90;999.90;;;7.10;99.90;;;;;;4952941;28;20118;-75
2023/10/06 00:23:14;;;;;;;1999.90;999.90;;;7.10;99.90;;;;;;4953157;28;20498;-75
2023/10/06 00:25:43;;;;;;;1999.90;999.90;;;7.10;99.90;;;;;;4951671;28;20063;-75
2023/10/06 00:28:15;;;;;;;1999.90;999.90;;;7.10;99.90;;;;;;4952883;28;20067;-75
2023/10/06 00:30:40;;;;;;;1999.90;999.90;;;7.20;99.90;;;;;;4953069;28;20094;-75
2023/10/06 00:33:06;;;;;;;1999.90;999.90;;;7.20;99.90;;;;;;4952964;28;20102;-75
2023/10/06 00:35:32;;;;;;;1999.90;999.90;;;7.20;99.90;;;;;;4952967;28;20036;-75
2023/10/06 00:38:10;;;;;;;1999.90;999.90;;;7.10;99.90;;;;;;4952485;28;20067;-75
2023/10/06 00:40:35;;;;;;;1999.90;999.90;;;7.00;99.90;;;;;;4951497;28;20032;-75
2023/10/06 00:43:05;;;;;;;1999.90;999.90;;;7.00;99.90;;;;;;4952637;28;20078;-75
2023/10/06 00:45:30;;;;;;;1999.90;999.90;;;7.00;99.90;;;;;;4952587;28;20027;-75
2023/10/06 00:47:56;;;;;;;1999.90;999.90;;;7.00;99.90;;;;;;4952581;28;20027;-75
2023/10/06 00:50:23;;;;;;;1999.90;999.90;;;6.90;99.90;;;;;;4952995;28;20035;-75
2023/10/06 00:52:50;;;;;;;1999.90;999.90;;;7.00;99.90;;;;;;4952757;28;20044;-75
2023/10/06 00:55:17;;;;;;;1999.90;999.90;;;6.90;99.90;;;;;;4952966;28;20058;-75
2023/10/06 00:57:50;;;;;;;1999.90;999.90;;;6.90;99.90;;;;;;4951669;28;20122;-75
2023/10/06 01:00:20;;;;;;;1999.90;999.90;;;6.80;99.90;;;;;;4952950;28;20032;-75
2023/10/06 01:02:47;;;;;;;1999.90;999.90;;;6.80;99.90;;;;;;4952787;28;20066;-75
2023/10/06 01:05:15;;;;;;;1999.90;999.90;;;6.80;99.90;;;;;;4951878;28;20493;-75
2023/10/06 01:07:41;;;;;;;1999.90;999.90;;;6.80;99.90;;;;;;4950552;28;20094;-75
2023/10/06 01:10:16;;;;;;;1999.90;999.90;;;6.80;99.90;;;;;;4951276;28;20028;-75
2023/10/06 01:12:43;;;;;;;1999.90;999.90;;;6.80;99.90;;;;;;4951223;28;20043;-75
2023/10/06 01:15:16;;;;;;;1999.90;999.90;;;6.80;99.90;;;;;;4952542;28;20028;-75
2023/10/06 01:17:57;;;;;;;1999.90;999.90;;;6.90;99.90;;;;;;4951918;28;20493;-75
2023/10/06 01:20:40;;;;;;;1999.90;999.90;;;6.90;99.90;;;;;;4951171;28;20031;-75
2023/10/06 01:23:16;;;;;;;1999.90;999.90;;;6.90;99.90;;;;;;4955587;28;20039;-75
2023/10/06 01:25:42;;;;;;;1999.90;999.90;;;6.90;99.90;;;;;;4955431;28;20506;-75
2023/10/06 01:28:12;;;;;;;1999.90;999.90;;;6.90;99.90;;;;;;4955073;28;20058;-74
2023/10/06 01:30:38;;;;;;;1999.90;999.90;;;6.80;99.90;;;;;;4955363;28;20039;-75
2023/10/06 01:33:05;;;;;;;1999.90;999.90;;;6.80;99.90;;;;;;4953882;28;20040;-75
2023/10/06 01:35:33;;;;;;;1999.90;999.90;;;6.80;99.90;;;;;;4953345;28;20040;-75
2023/10/06 01:38:00;;;;;;;1999.90;999.90;;;6.70;99.90;;;;;;4954888;28;20036;-75
2023/10/06 01:42:56;;;;;;;1999.90;999.90;;;6.50;99.90;;;;;;4955040;28;20067;-75
2023/10/06 01:45:22;;;;;;;1999.90;999.90;;;6.50;99.90;;;;;;4953711;28;20032;-75
2023/10/06 01:47:56;;;;;;;1999.90;999.90;;;6.50;99.90;;;;;;4954816;28;20036;-75
2023/10/06 01:50:26;;;;;;;1999.90;999.90;;;6.40;99.90;;;;;;4953569;28;20469;-74
2023/10/06 01:52:55;;;;;;;1999.90;999.90;;;6.40;99.90;;;;;;4955360;28;20347;-75
2023/10/06 01:55:23;;;;;;;1999.90;999.90;;;6.30;99.90;;;;;;4954858;28;20032;-75
2023/10/06 01:57:49;;;;;;;1999.90;999.90;;;6.30;99.90;;;;;;4954360;28;20078;-75
2023/10/06 02:00:17;;;;;;;1999.90;999.90;;;6.30;99.90;;;;;;4953633;28;20120;-75
2023/10/06 02:02:42;;;;;;;1999.90;999.90;;;6.30;99.90;;;;;;4955009;28;20046;-75
2023/10/06 02:05:12;;;;;;;1999.90;999.90;;;6.30;99.90;;;;;;4955042;28;20081;-75
2023/10/06 02:07:42;;;;;;;1999.90;999.90;;;6.20;99.90;;;;;;4954443;28;20036;-75
2023/10/06 02:10:12;;;;;;;1999.90;999.90;;;6.30;99.90;;;;;;4954903;28;20035;-75
2023/10/06 02:12:38;;;;;;;1999.90;999.90;;;6.20;99.90;;;;;;4953325;28;20130;-75
2023/10/06 02:15:10;;;;;;;1999.90;999.90;;;6.30;99.90;;;;;;4953363;28;20032;-75
2023/10/06 02:17:40;;;;;;;1999.90;999.90;;;6.20;99.90;;;;;;4954568;28;20044;-75
2023/10/06 02:22:55;;;;;;;1999.90;999.90;;;6.20;99.90;;;;;;4951964;28;20036;-75
2023/10/06 02:25:45;;;;;;;1999.90;999.90;;;6.20;99.90;;;;;;4955325;28;20841;-84
2023/10/06 02:28:14;;;;;;;1999.90;999.90;;;6.00;99.90;;;;;;4954511;28;20082;-76
2023/10/06 02:30:41;;;;;;;1999.90;999.90;;;6.10;99.90;;;;;;4954665;28;20537;-77
2023/10/06 02:33:06;;;;;;;1999.90;999.90;;;6.10;99.90;;;;;;4953664;28;20110;-77
2023/10/06 02:35:35;;;;;;;1999.90;999.90;;;6.10;99.90;;;;;;4954495;28;20107;-76
2023/10/06 02:38:05;;;;;;;1999.90;999.90;;;6.20;99.90;;;;;;4954481;28;20109;-76
2023/10/06 02:40:37;;;;;;;1999.90;999.90;;;6.20;99.90;;;;;;4953287;28;20032;-76
2023/10/06 02:43:07;;;;;;;1999.90;999.90;;;6.20;99.90;;;;;;4952708;28;20094;-76
2023/10/06 02:45:38;;;;;;;1999.90;999.90;;;6.20;99.90;;;;;;4952832;28;20038;-77
2023/10/06 02:48:14;;;;;;;1999.90;999.90;;;6.30;99.90;;;;;;4952724;28;20040;-76
2023/10/06 02:50:44;;;;;;;1999.90;999.90;;;6.30;99.90;;;;;;4953164;28;20583;-76
2023/10/06 02:53:13;;;;;;;1999.90;999.90;;;6.20;99.90;;;;;;4954683;28;20044;-76
2023/10/06 02:55:43;;;;;;;1999.90;999.90;;;6.30;99.90;;;;;;4954216;28;20570;-76
2023/10/06 02:58:19;;;;;;;1999.90;999.90;;;6.40;99.90;;;;;;4952515;28;20043;-76
2023/10/06 03:00:50;;;;;;;1999.90;999.90;;;6.50;99.90;;;;;;4952968;28;20114;-76
2023/10/06 03:03:18;;;;;;;1999.90;999.90;;;6.60;99.90;;;;;;4953046;28;20039;-76
2023/10/06 03:05:49;;;;;;;1999.90;999.90;;;6.60;99.90;;;;;;4954272;28;20039;-76
2023/10/06 03:08:20;;;;;;;1999.90;999.90;;;6.60;99.90;;;;;;4954338;28;20063;-76
2023/10/06 03:10:46;;;;;;;1999.90;999.90;;;6.70;99.90;;;;;;4952931;28;20111;-76
2023/10/06 03:13:15;;;;;;;1999.90;999.90;;;6.70;99.90;;;;;;4954297;28;20083;-76
2023/10/06 03:15:47;;;;;;;1999.90;999.90;;;6.70;99.90;;;;;;4952544;28;20034;-76
2023/10/06 03:18:14;;;;;;;1999.90;999.90;;;6.60;99.90;;;;;;4954188;28;20493;-76
2023/10/06 03:23:26;;;;;;;1999.90;999.90;;;6.60;99.90;;;;;;4955607;28;20036;-79
2023/10/06 03:25:54;;;;;;;1999.90;999.90;;;6.50;99.90;;;;;;4955424;28;20027;-78
2023/10/06 03:28:20;;;;;;;1999.90;999.90;;;6.50;99.90;;;;;;4952886;28;20070;-77
2023/10/06 03:30:49;;;;;;;1999.90;999.90;;;6.50;99.90;;;;;;4955392;28;20490;-77
2023/10/06 03:33:18;;;;;;;1999.90;999.90;;;6.40;99.90;;;;;;4954961;28;20027;-77
2023/10/06 03:35:47;;;;;;;1999.90;999.90;;;6.30;99.90;;;;;;4953732;28;20031;-78
2023/10/06 03:46:12;;;;;;;1999.90;999.90;;;6.40;99.90;;;;;;4950774;28;20576;-78
2023/10/06 03:48:38;;;;;;;1999.90;999.90;;;6.40;99.90;;;;;;4953722;28;20094;-77
2023/10/06 03:51:05;;;;;;;1999.90;999.90;;;6.60;99.90;;;;;;4954003;28;20059;-77
2023/10/06 03:53:31;;;;;;;1999.90;999.90;;;6.60;99.90;;;;;;4952337;28;20115;-78
2023/10/06 03:55:57;;;;;;;1999.90;999.90;;;6.70;99.90;;;;;;4953408;28;20039;-78
2023/10/06 03:58:28;;;;;;;1999.90;999.90;;;6.80;99.90;;;;;;4951648;28;20036;-78
2023/10/06 04:00:54;;;;;;;1999.90;999.90;;;6.80;99.90;;;;;;4953846;28;20043;-77
2023/10/06 04:03:19;;;;;;;1999.90;999.90;;;6.80;99.90;;;;;;4953726;28;20518;-78
2023/10/06 04:05:51;;;;;;;1999.90;999.90;;;6.80;99.90;;;;;;4953516;28;20056;-78
2023/10/06 04:08:20;;;;;;;1999.90;999.90;;;6.70;99.90;;;;;;4953315;28;20032;-78
2023/10/06 04:10:57;;;;;;;1999.90;999.90;;;6.60;99.90;;;;;;4953524;28;20042;-77
2023/10/06 04:13:23;;;;;;;1999.90;999.90;;;6.50;99.90;;;;;;4953631;28;20039;-78
2023/10/06 04:15:56;;;;;;;1999.90;999.90;;;6.40;99.90;;;;;;4953076;28;20048;-78
2023/10/06 04:18:24;;;;;;;1999.90;999.90;;;6.40;99.90;;;;;;4953441;28;20038;-78
2023/10/06 04:20:51;;;;;;;1999.90;999.90;;;6.40;99.90;;;;;;4952054;28;20043;-77
2023/10/06 04:23:18;;;;;;;1999.90;999.90;;;6.40;99.90;;;;;;4968235;28;20070;-78
2023/10/06 04:25:45;;;;;;;1999.90;999.90;;;6.40;99.90;;;;;;4953314;28;20120;-78
2023/10/06 04:28:15;;;;;;;1999.90;999.90;;;6.40;99.90;;;;;;4953141;28;20580;-76
2023/10/06 04:30:45;;;;;;;1999.90;999.90;;;6.30;99.90;;;;;;4975590;28;20029;-76
2023/10/06 04:33:13;;;;;;;1999.90;999.90;;;6.30;99.90;;;;;;5050836;28;20025;-76
2023/10/06 04:35:40;;;;;;;1999.90;999.90;;;6.20;99.90;;;;;;4952920;28;20485;-77
2023/10/06 04:38:12;;;;;;;1999.90;999.90;;;6.20;99.90;;;;;;5007011;28;20183;-76
2023/10/06 04:40:39;;;;;;;1999.90;999.90;;;6.20;99.90;;;;;;4932480;29;20782;-76
2023/10/06 04:43:04;;;;;;;1999.90;999.90;;;6.20;99.90;;;;;;4932474;29;20040;-80
2023/10/06 04:45:32;;;;;;;1999.90;999.90;;;6.10;99.90;;;;;;5018687;28;20037;-79
2023/10/06 04:48:00;;;;;;;1999.90;999.90;;;6.10;99.90;;;;;;5038697;28;20026;-79
2023/10/06 04:50:30;;;;;;;1999.90;999.90;;;6.10;99.90;;;;;;5054863;28;20029;-79
2023/10/06 04:52:56;;;;;;;1999.90;999.90;;;6.10;99.90;;;;;;5054677;28;20180;-79
2023/10/06 04:55:22;;;;;;;1999.90;999.90;;;6.10;99.90;;;;;;5055346;28;20478;-78
2023/10/06 04:57:48;;;;;;;1999.90;999.90;;;6.00;99.90;;;;;;5055826;28;20045;-78
2023/10/06 05:00:20;;;;;;;1999.90;999.90;;;6.10;99.90;;;;;;5029120;28;20464;-77
2023/10/06 05:02:47;;;;;;;1999.90;999.90;;;6.10;99.90;;;;;;4956044;28;20039;-78
2023/10/06 05:05:23;;;;;;;1999.90;999.90;;;6.00;99.90;;;;;;4955723;28;20054;-75
2023/10/06 05:07:53;;;;;;;1999.90;999.90;;;6.00;99.90;;;;;;4955331;28;20486;-74
2023/10/06 05:10:25;;;;;;;1999.90;999.90;;;6.00;99.90;;;;;;4955832;28;20039;-76
2023/10/06 05:12:54;;;;;;;1999.90;999.90;;;6.00;99.90;;;;;;4955472;28;20047;-76
2023/10/06 05:15:32;;;;;;;1999.90;999.90;;;6.00;99.90;;;;;;4955707;28;20070;-77
2023/10/06 05:17:58;;;;;;;1999.90;999.90;;;6.00;99.90;;;;;;4953896;28;20040;-77
2023/10/06 05:20:29;;;;;;;1999.90;999.90;;;6.10;99.90;;;;;;4955122;28;20086;-77
2023/10/06 05:23:14;;;;;;;1999.90;999.90;;;6.10;99.90;;;;;;4954793;28;20035;-80
2023/10/06 05:25:46;;;;;;;1999.90;999.90;;;6.10;99.90;;;;;;4953559;28;20036;-80
2023/10/06 05:28:18;;;;;;;1999.90;999.90;;;6.30;99.90;;;;;;4955952;28;20036;-77
2023/10/06 05:30:44;;;;;;;1999.90;999.90;;;6.20;99.90;;;;;;4955450;28;20154;-77
2023/10/06 05:33:10;;;;;;;1999.90;999.90;;;6.20;99.90;;;;;;4979936;28;20047;-77
2023/10/06 05:35:38;;;;;;;1999.90;999.90;;;6.20;99.90;;;;;;5057183;28;20036;-79
2023/10/06 05:38:12;;;;;;;1999.90;999.90;;;6.30;99.90;;;;;;5056903;28;20038;-77
2023/10/06 05:40:42;;;;;;;1999.90;999.90;;;6.30;99.90;;;;;;5057674;28;20502;-76
2023/10/06 05:43:15;;;;;;;1999.90;999.90;;;6.40;99.90;;;;;;5057393;28;20487;-77
2023/10/06 05:45:42;;;;;;;1999.90;999.90;;;6.40;99.90;;;;;;5055528;28;20044;-77
2023/10/06 05:48:12;;;;;;;1999.90;999.90;;;6.50;99.90;;;;;;5057244;28;20506;-77
2023/10/06 05:50:40;;;;;;;1999.90;999.90;;;6.50;99.90;;;;;;5055746;28;20483;-77
2023/10/06 05:53:12;;;;;;;1999.90;999.90;;;6.50;99.90;;;;;;5057062;28;20557;-77
2023/10/06 05:55:41;;;;;;;1999.90;999.90;;;6.50;99.90;;;;;;5056965;28;20037;-77
2023/10/06 05:58:19;;;;;;;1999.90;999.90;;;6.50;99.90;;;;;;5056506;28;20033;-77
2023/10/06 06:00:52;;;;;;;1999.90;999.90;;;6.50;99.90;;;;;;5057285;28;20092;-78
2023/10/06 06:03:21;;;;;;;1999.90;999.90;;;6.40;99.90;;;;;;5057696;28;20054;-78
2023/10/06 06:05:52;;;;;;;1999.90;999.90;;;6.40;99.90;;;;;;5056865;28;20056;-78
2023/10/06 06:08:18;;;;;;;1999.90;999.90;;;6.50;99.90;;;;;;5054317;28;20483;-78
2023/10/06 06:10:45;;;;;;;1999.90;999.90;;;6.60;99.90;;;;;;5057105;28;20057;-78
2023/10/06 06:13:13;;;;;;;1999.90;999.90;;;6.60;99.90;;;;;;5056139;28;20088;-78
2023/10/06 06:15:39;;;;;;;1999.90;999.90;;;6.60;99.90;;;;;;5056495;28;20506;-77
2023/10/06 06:18:05;;;;;;;1999.90;999.90;;;6.60;99.90;;;;;;5058574;28;20033;-78
2023/10/06 06:20:30;;;;;;;1999.90;999.90;;;6.60;99.90;;;;;;5061147;28;20511;-78
2023/10/06 06:22:59;;;;;;;1999.90;999.90;;;6.60;99.90;;;;;;5056638;28;20104;-77
2023/10/06 06:25:31;;;;;;;1999.90;999.90;;;6.60;99.90;;;;;;5055379;28;20557;-78
2023/10/06 06:27:59;;;;;;;1999.90;999.90;;;6.60;99.90;;;;;;5056176;28;20029;-78
2023/10/06 06:30:25;;;;;;;1999.90;999.90;;;6.60;99.90;;;;;;5056348;28;20029;-78
2023/10/06 06:32:53;;;;;;;1999.90;999.90;;;6.60;99.90;;;;;;5056631;28;20495;-78
2023/10/06 06:35:21;;;;;;;1999.90;999.90;;;6.50;99.90;;;;;;5056623;28;20043;-78
2023/10/06 06:37:51;;;;;;;1999.90;999.90;;;6.70;99.90;;;;;;5055845;28;20029;-78
2023/10/06 06:40:20;;;;;;;1999.90;999.90;;;6.70;99.90;;;;;;5055237;28;20034;-78
2023/10/06 06:42:48;;;;;;;1999.90;999.90;;;6.80;99.90;;;;;;5055288;28;20047;-77
2023/10/06 06:45:13;;;;;;;1999.90;999.90;;;6.80;99.90;;;;;;5056191;28;20034;-78
2023/10/06 06:47:41;;;;;;;1999.90;999.90;;;6.90;99.90;;;;;;5056091;28;20096;-78
2023/10/06 06:50:09;;;;;;;1999.90;999.90;;;6.90;99.90;;;;;;5056147;28;20468;-78
2023/10/06 06:52:35;;;;;;;1999.90;999.90;;;6.90;99.90;;;;;;5056145;28;20045;-78
2023/10/06 06:55:01;;;;;;;1999.90;999.90;;;7.00;99.90;;;;;;5054622;28;20037;-78
2023/10/06 06:57:26;;;;;;;1999.90;999.90;;;7.00;99.90;;;;;;5055387;28;20046;-78
2023/10/06 06:59:52;;;;;;;1999.90;999.90;;;7.10;99.90;;;;;;5054585;28;20483;-78
2023/10/06 07:02:20;;;;;;;1999.90;999.90;;;7.10;99.90;;;;;;5056382;28;20041;-77
2023/10/06 07:04:45;;;;;;;1999.90;999.90;;;7.20;99.90;;;;;;5056158;28;20029;-78
2023/10/06 07:07:11;;;;;;;1999.90;999.90;;;7.40;99.90;;;;;;5054074;28;20420;-78
2023/10/06 07:09:36;;;;;;;1999.90;999.90;;;7.50;99.90;;;;;;5056540;28;20034;-78
2023/10/06 07:12:03;;;;;;;1999.90;999.90;;;7.50;99.90;;;;;;5056407;28;20037;-78
2023/10/06 07:14:29;;;;;;;1999.90;999.90;;;7.50;99.90;;;;;;5056076;28;20091;-78
2023/10/06 07:16:56;;;;;;;1999.90;999.90;;;7.60;99.90;;;;;;5054453;28;20501;-78
2023/10/06 07:19:22;;;;;;;1999.90;999.90;;;7.70;99.90;;;;;;5055896;28;20030;-77
2023/10/06 07:21:49;;;;;;;1999.90;999.90;;;7.70;99.90;;;;;;5054925;28;20044;-78
2023/10/06 07:24:14;;;;;;;1999.90;999.90;;;7.80;99.90;;;;;;5056188;28;20029;-78
2023/10/06 07:26:43;;;;;;;1999.90;999.90;;;7.80;99.90;;;;;;5055754;28;20033;-78
2023/10/06 07:29:09;;;;;;;1999.90;999.90;;;8.00;99.90;;;;;;5056072;28;20380;-78
2023/10/06 07:31:35;;;;;;;1999.90;999.90;;;8.00;99.90;;;;;;5054356;28;20037;-78
2023/10/06 07:34:05;;;;;;;1999.90;999.90;;;8.10;99.90;;;;;;5055514;28;20032;-78
2023/10/06 07:36:35;;;;;;;1999.90;999.90;;;8.20;99.90;;;;;;5053509;28;20588;-78
2023/10/06 07:39:03;;;;;;;1999.90;999.90;;;8.30;99.90;;;;;;5055367;28;20120;-78
2023/10/06 07:41:29;;;;;;;1999.90;999.90;;;8.30;99.90;;;;;;5055231;28;20488;-78
2023/10/06 07:43:56;;;;;;;1999.90;999.90;;;8.40;99.90;;;;;;5055316;28;20042;-78
2023/10/06 07:46:22;;;;;;;1999.90;999.90;;;8.60;99.90;;;;;;5054969;28;20034;-78
2023/10/06 07:48:50;;;;;;;1999.90;999.90;;;8.70;99.90;;;;;;5055081;28;20120;-78
2023/10/06 07:51:19;;;;;;;1999.90;999.90;;;8.80;99.90;;;;;;5055061;28;20095;-78
2023/10/06 07:53:45;;;;;;;1999.90;999.90;;;8.90;99.90;;;;;;5053384;28;20034;-78
2023/10/06 07:56:11;;;;;;;1999.90;999.90;;;9.00;99.90;;;;;;5053233;28;20041;-78
2023/10/06 07:58:41;;;;;;;1999.90;999.90;;;9.00;99.90;;;;;;5053192;28;20556;-78
2023/10/06 08:01:12;;;;;;;1999.90;999.90;;;9.10;99.90;;;;;;5055114;28;20037;-78
2023/10/06 08:03:39;;;;;;;1999.90;999.90;;;9.20;99.90;;;;;;5055250;28;20048;-78
2023/10/06 08:06:11;;;;;;;1999.90;999.90;;;9.40;99.90;;;;;;5053338;28;20080;-78
2023/10/06 08:08:38;;;;;;;1999.90;999.90;;;9.50;99.90;;;;;;5054996;28;20132;-78
2023/10/06 08:11:05;;;;;;;1999.90;999.90;;;9.70;99.90;;;;;;5055197;28;20406;-78
2023/10/06 08:13:33;;;;;;;1999.90;999.90;;;9.80;99.90;;;;;;5053562;28;20033;-78
2023/10/06 08:15:59;;;;;;;1999.90;999.90;;;9.90;99.90;;;;;;5053086;28;20037;-78
2023/10/06 08:18:29;;;;;;;1999.90;999.90;;;10.10;99.90;;;;;;5055086;28;20037;-78
2023/10/06 08:21:02;;;;;;;1999.90;999.90;;;10.20;99.90;;;;;;5053326;28;20499;-78
2023/10/06 08:23:29;;;;;;;1999.90;999.90;;;10.40;99.90;;;;;;5055053;28;20064;-78
2023/10/06 08:25:56;;;;;;;1999.90;999.90;;;10.60;99.90;;;;;;5053388;28;20053;-78
2023/10/06 08:28:24;;;;;;;1999.90;999.90;;;10.70;99.90;;;;;;5055375;28;20045;-78
2023/10/06 08:30:50;;;;;;;1999.90;999.90;;;10.90;99.90;;;;;;5056236;28;20029;-78
2023/10/06 08:33:15;;;;;;;1999.90;999.90;;;11.00;99.90;;;;;;5057113;28;20491;-78
2023/10/06 08:35:41;;;;;;;1999.90;999.90;;;11.20;99.90;;;;;;5057775;28;20033;-75
2023/10/06 08:38:07;;;;;;;1999.90;999.90;;;11.30;99.90;;;;;;5057975;28;20040;-75
2023/10/06 08:40:36;;;;;;;1999.90;999.90;;;11.40;99.90;;;;;;5057996;28;20034;-75
2023/10/06 08:43:06;;;;;;;1999.90;999.90;;;11.50;99.90;;;;;;5057572;28;20029;-76
2023/10/06 08:45:32;;;;;;;1999.90;999.90;;;11.60;99.90;;;;;;5055964;28;20033;-75
2023/10/06 08:48:01;;;;;;;1999.90;999.90;;;11.70;99.90;;;;;;5055642;28;20037;-75
2023/10/06 08:50:27;;;;;;;1999.90;999.90;;;11.80;99.90;;;;;;5057397;28;20038;-75
2023/10/06 08:52:55;;;;;;;1999.90;999.90;;;11.90;99.90;;;;;;5057509;28;20030;-76
2023/10/06 08:55:22;;;;;;;1999.90;999.90;;;12.10;99.90;;;;;;5055947;28;20033;-75
2023/10/06 08:57:50;;;;;;;1999.90;999.90;;;12.20;99.90;;;;;;5054786;28;20041;-75
2023/10/06 09:00:22;;;;;;;1999.90;999.90;;;12.40;99.90;;;;;;5055929;28;20065;-76
2023/10/06 09:02:50;;;;;;;1999.90;999.90;;;12.50;99.90;;;;;;5057460;28;20072;-76
2023/10/06 09:05:15;;;;;;;1999.90;999.90;;;12.70;99.90;;;;;;5055826;28;20037;-75
2023/10/06 09:08:04;;;;;;;1999.90;999.90;;;12.80;99.90;;;;;;5055210;28;20033;-76
2023/10/06 09:10:30;;;;;;;1999.90;999.90;;;13.10;99.90;;;;;;5057158;28;20821;-75
2023/10/06 09:13:08;;;;;;;1999.90;999.90;;;13.20;99.90;;;;;;5057124;28;20037;-76
2023/10/06 09:15:37;;;;;;;1999.90;999.90;;;13.30;99.90;;;;;;5056905;28;20028;-76
2023/10/06 09:18:28;;;;;;;1999.90;999.90;;;13.50;99.90;;;;;;5055993;28;20349;-78
2023/10/06 09:20:56;;;;;;;1999.90;999.90;;;13.60;99.90;;;;;;5058440;28;20104;-78
2023/10/06 09:23:33;;;;;;;1999.90;999.90;;;13.70;99.90;;;;;;5058363;28;20030;-78
2023/10/06 09:26:03;;;;;;;1999.90;999.90;;;13.90;99.90;;;;;;5056936;28;20118;-78
2023/10/06 09:28:29;;;;;;;1999.90;999.90;;;14.00;99.90;;;;;;5057550;28;20041;-78
2023/10/06 09:30:57;;;;;;;1999.90;999.90;;;14.10;99.90;;;;;;5056495;28;20113;-78
2023/10/06 09:33:26;;;;;;;1999.90;999.90;;;14.30;99.90;;;;;;5057590;28;20037;-78
2023/10/06 09:36:11;;;;;;;1999.90;999.90;;;14.50;99.90;;;;;;5055626;28;20030;-78
2023/10/06 09:38:41;;;;;;;1999.90;999.90;;;14.70;99.90;;;;;;5057529;28;20026;-78
2023/10/06 09:41:07;;;;;;;1999.90;999.90;;;14.90;99.90;;;;;;5057446;28;20037;-78
2023/10/06 09:43:39;;;;;;;1999.90;999.90;;;15.00;99.90;;;;;;5057709;28;20513;-78
2023/10/06 09:46:06;;;;;;;1999.90;999.90;;;15.20;99.90;;;;;;5056058;28;20531;-78
2023/10/06 09:48:34;;;;;;;1999.90;999.90;;;15.40;99.90;;;;;;5055936;28;20124;-78
2023/10/06 09:51:02;;;;;;;1999.90;999.90;;;15.50;99.90;;;;;;5055625;28;20042;-76
2023/10/06 09:53:30;;;;;;;1999.90;999.90;;;15.70;99.90;;;;;;5057061;28;20083;-78
2023/10/06 09:55:56;;;;;;;1999.90;999.90;;;15.90;99.90;;;;;;5056837;28;20033;-78
2023/10/06 09:58:23;;;;;;;1999.90;999.90;;;15.90;99.90;;;;;;5055599;28;20037;-78
2023/10/06 10:00:49;;;;;;;1999.90;999.90;;;16.10;99.90;;;;;;5055503;28;20060;-76
2023/10/06 10:03:16;;;;;;;1999.90;999.90;;;16.20;99.90;;;;;;5054741;28;20037;-76
2023/10/06 10:05:43;;;;;;;1999.90;999.90;;;16.40;99.90;;;;;;5056097;28;20104;-76
2023/10/06 10:08:10;;;;;;;1999.90;999.90;;;16.50;99.90;;;;;;5056050;28;20515;-76
2023/10/06 10:10:39;;;;;;;1999.90;999.90;;;16.40;99.90;;;;;;5056247;28;20029;-76
2023/10/06 10:13:19;;;;;;;1999.90;999.90;;;16.50;99.90;;;;;;5055959;28;20087;-76
2023/10/06 10:16:01;;;;;;;1999.90;999.90;;;16.50;99.90;;;;;;5055869;28;20030;-76
2023/10/06 10:18:38;;;;;;;1999.90;999.90;;;16.70;99.90;;;;;;5056067;28;20124;-76
2023/10/06 10:21:08;;;;;;;1999.90;999.90;;;16.80;99.90;;;;;;5054683;28;20041;-76
2023/10/06 10:23:37;;;;;;;1999.90;999.90;;;16.90;99.90;;;;;;5056394;28;20120;-77
2023/10/06 10:26:42;;;;;;;1999.90;999.90;;;17.30;99.90;;;;;;5054452;28;20053;-77
2023/10/06 10:29:13;;;;;;;1999.90;999.90;;;17.30;99.90;;;;;;5055373;28;20046;-77
2023/10/06 10:31:42;;;;;;;1999.90;999.90;;;17.40;99.90;;;;;;5054591;28;20104;-77
2023/10/06 10:34:11;;;;;;;1999.90;999.90;;;17.60;99.90;;;;;;5056216;28;20120;-77
2023/10/06 10:36:37;;;;;;;1999.90;999.90;;;17.60;99.90;;;;;;5056086;28;20121;-78
2023/10/06 10:39:18;;;;;;;1999.90;999.90;;;17.60;99.90;;;;;;5055984;28;20097;-78
2023/10/06 10:41:45;;;;;;;1999.90;999.90;;;17.70;99.90;;;;;;5055816;28;20112;-78
2023/10/06 10:44:12;;;;;;;1999.90;999.90;;;17.70;99.90;;;;;;5056386;28;20509;-77
2023/10/06 10:46:50;;;;;;;1999.90;999.90;;;17.70;99.90;;;;;;5054003;28;20037;-77
2023/10/06 10:49:22;;;;;;;1999.90;999.90;;;17.80;99.90;;;;;;5055956;28;20025;-77
2023/10/06 10:52:02;;;;;;;1999.90;999.90;;;18.00;99.90;;;;;;5055697;28;20045;-77
2023/10/06 10:54:30;;;;;;;1999.90;999.90;;;18.30;99.90;;;;;;5055410;28;20022;-77
2023/10/06 10:57:02;;;;;;;1999.90;999.90;;;18.30;99.90;;;;;;5055830;28;20120;-80
2023/10/06 11:02:51;;;;;;;1999.90;999.90;;;18.10;99.90;;;;;;5054004;28;20120;-79
2023/10/06 11:05:21;;;;;;;1999.90;999.90;;;17.90;99.90;;;;;;5055385;28;20116;-80
2023/10/06 11:08:00;;;;;;;1999.90;999.90;;;17.90;99.90;;;;;;5056046;28;20040;-80
2023/10/06 11:10:26;;;;;;;1999.90;999.90;;;17.90;99.90;;;;;;5058021;28;20060;-79
2023/10/06 11:13:21;;;;;;;1999.90;999.90;;;17.80;99.90;;;;;;5056583;28;20550;-79
2023/10/06 11:15:49;;;;;;;1999.90;999.90;;;17.80;99.90;;;;;;5053779;28;20044;-79
2023/10/06 11:18:17;;;;;;;1999.90;999.90;;;17.60;99.90;;;;;;5055551;28;20039;-79
2023/10/06 11:20:45;;;;;;;1999.90;999.90;;;17.40;99.90;;;;;;5055832;28;20030;-79
2023/10/06 11:23:11;;;;;;;1999.90;999.90;;;17.50;99.90;;;;;;5054891;28;20038;-79
2023/10/06 11:25:46;;;;;;;1999.90;999.90;;;17.80;99.90;;;;;;5056708;28;20041;-79
2023/10/06 11:28:12;;;;;;;1999.90;999.90;;;17.90;99.90;;;;;;5054837;28;20038;-79
2023/10/06 11:30:40;;;;;;;1999.90;999.90;;;18.00;99.90;;;;;;5056833;28;20491;-79
2023/10/06 11:33:08;;;;;;;1999.90;999.90;;;18.20;99.90;;;;;;5057310;28;20112;-80
2023/10/06 11:35:35;;;;;;;1999.90;999.90;;;18.10;99.90;;;;;;5056966;28;20128;-80
2023/10/06 11:38:11;;;;;;;1999.90;999.90;;;18.30;99.90;;;;;;5053750;28;20116;-80
2023/10/06 11:40:37;;;;;;;1999.90;999.90;;;18.30;99.90;;;;;;5055637;28;20483;-78
2023/10/06 11:43:12;;;;;;;1999.90;999.90;;;18.40;99.90;;;;;;5054621;28;20037;-79
2023/10/06 11:45:37;;;;;;;1999.90;999.90;;;18.40;99.90;;;;;;5056937;28;20030;-75
2023/10/06 11:48:03;;;;;;;1999.90;999.90;;;18.40;99.90;;;;;;5055672;28;20033;-79
2023/10/06 11:50:32;;;;;;;1999.90;999.90;;;18.60;99.90;;;;;;5055825;28;20080;-79
2023/10/06 11:53:01;;;;;;;1999.90;999.90;;;18.60;99.90;;;;;;5055701;28;20569;-79
2023/10/06 11:55:32;;;;;;;1999.90;999.90;;;18.60;99.90;;;;;;5055575;28;20072;-78
2023/10/06 11:58:04;;;;;;;1999.90;999.90;;;18.80;99.90;;;;;;5054439;28;20533;-79
2023/10/06 12:00:41;;;;;;;1999.90;999.90;;;18.90;99.90;;;;;;5055710;28;20030;-79
2023/10/06 12:03:10;;;;;;;1999.90;999.90;;;19.00;99.90;;;;;;5053649;28;20121;-79
2023/10/06 12:05:37;;;;;;;1999.90;999.90;;;19.00;99.90;;;;;;5052713;28;20057;-79
2023/10/06 12:08:08;;;;;;;1999.90;999.90;;;19.10;99.90;;;;;;5055103;28;20033;-79
2023/10/06 12:10:46;;;;;;;1999.90;999.90;;;19.20;99.90;;;;;;5053380;28;20483;-79
2023/10/06 12:13:11;;;;;;;1999.90;999.90;;;19.40;99.90;;;;;;5054414;28;20037;-78
2023/10/06 12:15:37;;;;;;;1999.90;999.90;;;19.20;99.90;;;;;;5053971;28;20025;-76
2023/10/06 12:18:04;;;;;;;1999.90;999.90;;;19.20;99.90;;;;;;5054728;28;20049;-80
2023/10/06 12:20:30;;;;;;;1999.90;999.90;;;19.40;99.70;;;;;;5055050;28;20483;-79
2023/10/06 12:22:55;;;;;;;1999.90;999.90;;;19.50;99.50;;;;;;5055054;28;20124;-80
2023/10/06 12:25:25;;;;;;;1999.90;999.90;;;19.50;98.30;;;;;;5053548;28;20045;-79
2023/10/06 12:27:51;;;;;;;1999.90;999.90;;;19.60;97.80;;;;;;5055158;28;20044;-80
2023/10/06 12:30:17;;;;;;;1999.90;999.90;;;19.70;98.80;;;;;;5058923;28;20037;-79
2023/10/06 12:32:45;;;;;;;1999.90;999.90;;;20.00;97.80;;;;;;5055644;28;20042;-78
2023/10/06 12:35:11;;;;;;;1999.90;999.90;;;20.20;98.30;;;;;;5054995;28;20021;-80
2023/10/06 12:37:41;;;;;;;1999.90;999.90;;;20.20;98.10;;;;;;5052998;28;20080;-80